Time;durP1;ratioP1;P1;durP2;ratioP2;P2;SDS_P1;SDS_P2;PMS_P1;PMS_P2;Temp;Humidity;BMP_temperature;BMP_pressure;BME280_temperature;BME280_humidity;BME280_pressure;Samples;Min_cycle;Max_cycle;Signal;HPM_P1;HPM_P2
2023/09/10 00:01:38;;;;;;;16.17;6.85;;;26.10;99.90;;;;;;5071428;28;20481;-59
2023/09/10 00:04:04;;;;;;;17.42;7.25;;;26.30;99.90;;;;;;5071144;28;20025;-58
2023/09/10 00:06:32;;;;;;;16.60;7.15;;;26.20;99.90;;;;;;5070935;28;20032;-59
2023/09/10 00:08:58;;;;;;;19.58;6.97;;;26.10;99.90;;;;;;5070417;28;20112;-59
2023/09/10 00:11:25;;;;;;;16.60;7.07;;;26.10;99.90;;;;;;5070925;28;20497;-58
2023/09/10 00:13:51;;;;;;;20.02;7.05;;;26.20;99.90;;;;;;5071371;28;20027;-59
2023/09/10 00:16:17;;;;;;;15.70;7.07;;;26.20;99.90;;;;;;5074865;28;20036;-59
2023/09/10 00:18:42;;;;;;;18.23;7.55;;;26.10;99.90;;;;;;5075110;28;20036;-58
2023/09/10 00:21:08;;;;;;;19.80;7.10;;;26.20;99.90;;;;;;5057099;28;20138;-59
2023/09/10 00:23:34;;;;;;;13.57;6.80;;;26.20;99.90;;;;;;5074756;28;20029;-59
2023/09/10 00:26:00;;;;;;;16.05;6.85;;;26.20;99.90;;;;;;5074934;28;20392;-59
2023/09/10 00:28:25;;;;;;;16.48;6.85;;;26.20;99.90;;;;;;5074748;28;20052;-59
2023/09/10 00:30:55;;;;;;;11.55;6.63;;;26.00;99.90;;;;;;5074589;28;20040;-59
2023/09/10 00:33:20;;;;;;;15.05;6.63;;;25.90;99.90;;;;;;5075165;28;20444;-59
2023/09/10 00:35:46;;;;;;;14.07;7.10;;;26.00;99.90;;;;;;5074766;28;20024;-59
2023/09/10 00:38:12;;;;;;;13.50;6.68;;;26.00;99.90;;;;;;5074296;28;20135;-59
2023/09/10 00:40:38;;;;;;;14.82;7.45;;;25.90;99.90;;;;;;5074616;28;20043;-58
2023/09/10 00:43:03;;;;;;;13.90;6.68;;;26.00;99.90;;;;;;5074886;28;20024;-59
2023/09/10 00:45:30;;;;;;;11.25;6.57;;;25.90;99.90;;;;;;5074192;28;20486;-59
2023/09/10 00:47:56;;;;;;;13.52;7.25;;;26.00;99.90;;;;;;5074774;28;20485;-59
2023/09/10 00:50:22;;;;;;;16.63;7.53;;;25.90;99.90;;;;;;5074119;28;20040;-59
2023/09/10 00:52:56;;;;;;;14.25;7.00;;;25.90;99.90;;;;;;5091245;28;20492;-59
2023/09/10 00:55:23;;;;;;;17.45;7.22;;;25.80;99.90;;;;;;5094691;28;20500;-59
2023/09/10 00:57:49;;;;;;;13.00;7.43;;;25.50;99.90;;;;;;5094540;28;20036;-59
2023/09/10 01:00:16;;;;;;;16.73;7.30;;;25.40;99.90;;;;;;5094454;28;20034;-59
2023/09/10 01:02:44;;;;;;;12.30;6.97;;;25.30;99.90;;;;;;5094492;28;20036;-58
2023/09/10 01:05:11;;;;;;;12.63;7.13;;;25.20;99.90;;;;;;5094362;28;20024;-59
2023/09/10 01:07:38;;;;;;;12.45;6.63;;;25.20;99.90;;;;;;5093858;28;20027;-58
2023/09/10 01:10:07;;;;;;;14.15;6.97;;;25.10;99.90;;;;;;5094644;28;20047;-59
2023/09/10 01:12:46;;;;;;;11.88;6.70;;;25.00;99.90;;;;;;5094310;28;20511;-59
2023/09/10 01:15:34;;;;;;;9.80;6.55;;;25.00;99.90;;;;;;5094276;28;20054;-59
2023/09/10 01:18:08;;;;;;;10.82;7.25;;;24.80;99.90;;;;;;5094199;28;20366;-59
2023/09/10 01:21:09;;;;;;;11.35;6.53;;;24.80;99.90;;;;;;5085640;28;20060;-59
2023/09/10 01:24:09;;;;;;;11.73;7.20;;;24.80;99.90;;;;;;5073249;28;20029;-59
2023/09/10 01:26:40;;;;;;;13.63;7.47;;;24.80;99.90;;;;;;5058357;28;20036;-59
2023/09/10 01:29:14;;;;;;;11.25;7.53;;;24.90;99.90;;;;;;5073607;28;20099;-59
2023/09/10 01:31:44;;;;;;;12.00;7.05;;;25.00;99.90;;;;;;5073486;28;20037;-59
2023/09/10 01:34:14;;;;;;;13.25;6.90;;;25.10;99.90;;;;;;5073471;28;20035;-59
2023/09/10 01:36:45;;;;;;;15.05;7.38;;;25.10;99.90;;;;;;5055215;28;20047;-58
2023/09/10 01:39:36;;;;;;;12.10;7.10;;;25.20;99.90;;;;;;5073914;28;20501;-58
2023/09/10 01:42:05;;;;;;;10.52;7.07;;;25.20;99.90;;;;;;5073020;28;20039;-59
2023/09/10 01:44:32;;;;;;;14.20;7.43;;;25.10;99.90;;;;;;5073529;28;20032;-59
2023/09/10 01:46:59;;;;;;;11.38;7.25;;;25.10;99.90;;;;;;5073289;28;20862;-59
2023/09/10 01:49:25;;;;;;;13.35;7.22;;;25.10;99.90;;;;;;5073404;28;20052;-59
2023/09/10 01:51:51;;;;;;;12.32;7.40;;;25.10;99.90;;;;;;5081882;28;20040;-59
2023/09/10 01:54:16;;;;;;;10.55;6.78;;;25.10;99.90;;;;;;5093652;28;20023;-59
2023/09/10 01:56:42;;;;;;;16.15;7.95;;;25.10;99.90;;;;;;5093387;28;20572;-59
2023/09/10 01:59:08;;;;;;;13.48;7.15;;;25.00;99.90;;;;;;5093342;28;20031;-59
2023/09/10 02:01:34;;;;;;;10.50;7.55;;;24.90;99.90;;;;;;5093565;28;20047;-60
2023/09/10 02:03:59;;;;;;;11.23;7.03;;;25.00;99.90;;;;;;5093542;28;20090;-58
2023/09/10 02:06:25;;;;;;;14.32;7.40;;;25.00;99.90;;;;;;5092845;28;20031;-59
2023/09/10 02:08:50;;;;;;;11.85;7.32;;;24.90;99.90;;;;;;5093129;28;20042;-59
2023/09/10 02:11:16;;;;;;;14.23;7.75;;;25.00;99.90;;;;;;5093091;28;20063;-59
2023/09/10 02:13:42;;;;;;;13.25;7.90;;;24.90;99.90;;;;;;5093427;28;20052;-59
2023/09/10 02:16:08;;;;;;;14.70;8.98;;;24.90;99.90;;;;;;5093000;28;20026;-59
2023/09/10 02:18:34;;;;;;;13.50;8.90;;;24.90;99.90;;;;;;5092934;28;20038;-59
2023/09/10 02:20:59;;;;;;;10.63;8.63;;;24.70;99.90;;;;;;5080562;28;20032;-59
2023/09/10 02:23:25;;;;;;;12.65;8.70;;;24.60;99.90;;;;;;5072912;28;20107;-60
2023/09/10 02:25:52;;;;;;;14.02;8.50;;;24.60;99.90;;;;;;5072980;28;20028;-60
2023/09/10 02:28:23;;;;;;;11.70;9.05;;;24.40;99.90;;;;;;5072339;28;20139;-60
2023/09/10 02:30:49;;;;;;;12.48;9.82;;;24.10;99.90;;;;;;5072659;28;20037;-60
2023/09/10 02:33:14;;;;;;;11.98;9.18;;;23.90;99.90;;;;;;5072645;28;20036;-59
2023/09/10 02:35:40;;;;;;;12.27;9.00;;;23.90;99.90;;;;;;5071975;28;20028;-59
2023/09/10 02:38:05;;;;;;;13.70;9.40;;;23.80;99.90;;;;;;5071657;28;20074;-60
2023/09/10 02:40:31;;;;;;;13.65;9.35;;;23.70;99.90;;;;;;5072361;28;20037;-59
2023/09/10 02:42:57;;;;;;;12.10;8.95;;;23.60;99.90;;;;;;5072355;28;20024;-60
2023/09/10 02:45:23;;;;;;;10.85;8.63;;;23.60;99.90;;;;;;5072555;28;20143;-59
2023/09/10 02:47:48;;;;;;;9.95;8.70;;;23.60;99.90;;;;;;5072275;28;20028;-59
2023/09/10 02:50:14;;;;;;;13.45;9.15;;;23.60;99.90;;;;;;5071543;28;20030;-59
2023/09/10 02:52:40;;;;;;;12.48;9.30;;;23.60;99.90;;;;;;5088069;28;20408;-59
2023/09/10 02:55:06;;;;;;;11.13;9.80;;;23.60;99.90;;;;;;5092504;28;20024;-59
2023/09/10 02:57:32;;;;;;;10.07;8.60;;;23.60;99.90;;;;;;5092014;28;20024;-59
2023/09/10 02:59:57;;;;;;;11.95;8.95;;;23.50;99.90;;;;;;5092339;28;20095;-59
2023/09/10 03:02:23;;;;;;;11.75;8.82;;;23.80;99.90;;;;;;5092103;28;20032;-59
2023/09/10 03:04:49;;;;;;;15.30;9.20;;;24.10;99.90;;;;;;5091915;28;20457;-59
2023/09/10 03:07:14;;;;;;;14.90;9.43;;;24.10;99.90;;;;;;5091982;28;20030;-59
2023/09/10 03:09:40;;;;;;;12.25;8.82;;;24.10;99.90;;;;;;5092000;28;20031;-59
2023/09/10 03:12:22;;;;;;;17.88;9.38;;;24.20;99.90;;;;;;5091762;28;20043;-59
2023/09/10 03:14:47;;;;;;;17.70;9.38;;;24.30;99.90;;;;;;5091927;28;20034;-59
2023/09/10 03:17:13;;;;;;;18.42;9.45;;;24.40;99.90;;;;;;5091912;28;20028;-60
2023/09/10 03:19:40;;;;;;;15.77;9.70;;;24.40;99.90;;;;;;5090941;28;20048;-59
2023/09/10 03:22:06;;;;;;;27.05;10.02;;;24.40;99.90;;;;;;5071504;28;20056;-59
2023/09/10 03:24:35;;;;;;;25.92;9.80;;;24.40;99.90;;;;;;5053669;28;20060;-59
2023/09/10 03:27:01;;;;;;;28.92;9.80;;;24.30;99.90;;;;;;5071227;28;20048;-60
2023/09/10 03:29:27;;;;;;;27.70;10.13;;;24.30;99.90;;;;;;5071446;28;20523;-60
2023/09/10 03:31:53;;;;;;;31.17;9.82;;;24.40;99.90;;;;;;5071354;28;20040;-59
2023/09/10 03:34:19;;;;;;;32.90;10.30;;;24.40;99.90;;;;;;5071328;28;20394;-60
2023/09/10 03:36:44;;;;;;;34.35;10.07;;;24.40;99.90;;;;;;5071370;28;20490;-59
2023/09/10 03:39:10;;;;;;;26.67;8.75;;;24.50;99.90;;;;;;5071702;28;20056;-59
2023/09/10 03:41:36;;;;;;;25.05;8.77;;;24.40;99.90;;;;;;5053445;28;20028;-59
2023/09/10 03:44:02;;;;;;;25.20;8.70;;;24.30;99.90;;;;;;5071302;28;20064;-60
2023/09/10 03:46:28;;;;;;;25.58;8.15;;;24.20;99.90;;;;;;5062724;28;20031;-59
2023/09/10 03:48:53;;;;;;;26.40;8.10;;;24.20;99.90;;;;;;5070682;28;20032;-59
2023/09/10 03:51:19;;;;;;;20.63;8.00;;;24.10;99.90;;;;;;5075508;28;20514;-60
2023/09/10 03:53:45;;;;;;;26.50;9.02;;;24.00;99.90;;;;;;5073456;28;20396;-59
2023/09/10 03:56:10;;;;;;;21.20;7.88;;;23.80;99.90;;;;;;5091336;28;20500;-59
2023/09/10 03:58:36;;;;;;;24.60;8.25;;;23.70;99.90;;;;;;5091353;28;20028;-59
2023/09/10 04:01:02;;;;;;;23.17;8.32;;;23.60;99.90;;;;;;5090955;28;20245;-60
2023/09/10 04:03:28;;;;;;;21.23;7.55;;;23.40;99.90;;;;;;5091223;28;20031;-60
2023/09/10 04:05:54;;;;;;;18.15;7.22;;;23.40;99.90;;;;;;5091354;28;20032;-60
2023/09/10 04:08:19;;;;;;;16.35;6.97;;;23.50;99.90;;;;;;5091557;28;20111;-60
2023/09/10 04:10:45;;;;;;;18.30;7.22;;;23.50;99.90;;;;;;5091206;28;20455;-59
2023/09/10 04:13:11;;;;;;;14.38;6.30;;;23.40;99.90;;;;;;5091265;28;20481;-59
2023/09/10 04:15:37;;;;;;;16.23;6.43;;;23.50;99.90;;;;;;5090846;28;20032;-59
2023/09/10 04:18:05;;;;;;;16.85;6.50;;;23.60;99.90;;;;;;5091254;28;20028;-60
2023/09/10 04:20:30;;;;;;;18.05;6.97;;;23.50;99.90;;;;;;5083290;28;20048;-60
2023/09/10 04:22:56;;;;;;;17.13;7.05;;;23.30;99.90;;;;;;5070776;28;20051;-60
2023/09/10 04:25:22;;;;;;;18.50;7.50;;;23.40;99.90;;;;;;5070973;28;20501;-60
2023/09/10 04:27:48;;;;;;;18.10;6.57;;;23.30;99.90;;;;;;5071012;28;20052;-60
2023/09/10 04:30:14;;;;;;;17.95;6.82;;;23.40;99.90;;;;;;5070431;28;20035;-59
2023/09/10 04:32:39;;;;;;;15.05;6.43;;;23.40;99.90;;;;;;5070847;28;20025;-59
2023/09/10 04:35:05;;;;;;;13.60;6.95;;;23.50;99.90;;;;;;5070874;28;20024;-59
2023/09/10 04:37:32;;;;;;;16.20;6.18;;;23.50;99.90;;;;;;5070775;28;20074;-60
2023/09/10 04:39:57;;;;;;;14.80;6.85;;;23.60;99.90;;;;;;5070859;28;20391;-59
2023/09/10 04:42:23;;;;;;;15.02;6.45;;;23.50;99.90;;;;;;5070727;28;20028;-60
2023/09/10 04:44:49;;;;;;;14.65;6.32;;;23.50;99.90;;;;;;5070653;28;20032;-60
2023/09/10 04:47:15;;;;;;;17.23;7.22;;;23.60;99.90;;;;;;5070745;28;20036;-60
2023/09/10 04:49:41;;;;;;;16.70;7.05;;;23.50;99.90;;;;;;5070691;28;20033;-60
2023/09/10 04:52:07;;;;;;;13.25;6.50;;;23.50;99.90;;;;;;5070500;28;20039;-60
2023/09/10 04:54:32;;;;;;;16.15;7.07;;;23.50;99.90;;;;;;5070845;28;20035;-60
2023/09/10 04:56:58;;;;;;;13.27;6.53;;;23.50;99.90;;;;;;5070883;28;20091;-60
2023/09/10 04:59:24;;;;;;;14.98;6.70;;;23.40;99.90;;;;;;5070259;28;20020;-60
2023/09/10 05:01:49;;;;;;;17.65;7.32;;;23.40;99.90;;;;;;5055552;28;20028;-60
2023/09/10 05:04:15;;;;;;;13.77;6.75;;;23.40;99.90;;;;;;5074187;28;20067;-60
2023/09/10 05:06:41;;;;;;;18.42;7.50;;;23.40;99.90;;;;;;5074228;28;20090;-60
2023/09/10 05:09:08;;;;;;;15.45;7.57;;;23.40;99.90;;;;;;5074122;28;20020;-60
2023/09/10 05:11:34;;;;;;;16.25;7.72;;;23.30;99.90;;;;;;5074374;28;20119;-60
2023/09/10 05:13:59;;;;;;;15.60;7.93;;;23.40;99.90;;;;;;5073629;28;20103;-60
2023/09/10 05:16:25;;;;;;;16.30;7.97;;;23.30;99.90;;;;;;5074061;28;20033;-60
2023/09/10 05:18:52;;;;;;;16.30;8.52;;;23.10;99.90;;;;;;5073953;28;20025;-60
2023/09/10 05:21:18;;;;;;;18.02;8.55;;;22.90;99.90;;;;;;5073990;28;20095;-60
2023/09/10 05:23:44;;;;;;;15.15;8.10;;;22.80;99.90;;;;;;5073988;28;20016;-60
2023/09/10 05:26:09;;;;;;;14.88;8.20;;;22.80;99.90;;;;;;5073951;28;20028;-60
2023/09/10 05:28:35;;;;;;;14.82;8.63;;;22.70;99.90;;;;;;5073621;28;20044;-60
2023/09/10 05:31:05;;;;;;;16.52;8.50;;;22.70;99.90;;;;;;5073746;28;20127;-60
2023/09/10 05:33:32;;;;;;;16.98;8.63;;;22.70;99.90;;;;;;5073816;28;20126;-60
2023/09/10 05:35:58;;;;;;;16.48;8.90;;;22.60;99.90;;;;;;5074024;28;20032;-60
2023/09/10 05:38:25;;;;;;;17.13;9.45;;;22.60;99.90;;;;;;5073915;28;20035;-60
2023/09/10 05:40:51;;;;;;;17.48;9.82;;;22.50;99.90;;;;;;5073837;28;20115;-59
2023/09/10 05:43:17;;;;;;;16.48;9.90;;;22.50;99.90;;;;;;5056449;28;20030;-60
2023/09/10 05:45:46;;;;;;;14.90;9.07;;;22.40;99.90;;;;;;5070840;28;20499;-59
2023/09/10 05:48:12;;;;;;;16.80;9.32;;;22.60;99.90;;;;;;5066249;28;20032;-59
2023/09/10 05:50:42;;;;;;;18.50;9.90;;;22.70;99.90;;;;;;5062802;28;20037;-60
2023/09/10 05:53:08;;;;;;;15.25;9.57;;;22.70;99.90;;;;;;5064628;28;20116;-60
2023/09/10 05:55:39;;;;;;;14.25;9.00;;;22.80;99.90;;;;;;5073201;28;20029;-60
2023/09/10 05:58:04;;;;;;;16.23;9.23;;;22.80;99.90;;;;;;5072855;28;20029;-59
2023/09/10 06:00:30;;;;;;;16.55;8.85;;;23.00;99.90;;;;;;5073670;28;20052;-59
2023/09/10 06:02:55;;;;;;;15.50;8.90;;;23.10;99.90;;;;;;5073212;28;20032;-60
2023/09/10 06:05:21;;;;;;;17.98;8.15;;;23.30;99.90;;;;;;5073108;28;20036;-60
2023/09/10 06:07:47;;;;;;;14.82;8.18;;;23.30;99.90;;;;;;5073494;28;20036;-60
2023/09/10 06:10:12;;;;;;;16.65;8.50;;;23.20;99.90;;;;;;5073034;28;20119;-60
2023/09/10 06:12:39;;;;;;;19.20;8.68;;;23.30;99.90;;;;;;5071819;28;20037;-60
2023/09/10 06:15:06;;;;;;;13.05;7.28;;;23.30;99.90;;;;;;5073071;28;20017;-60
2023/09/10 06:17:35;;;;;;;13.40;7.13;;;23.30;99.90;;;;;;5068595;28;20040;-60
2023/09/10 06:20:03;;;;;;;14.90;7.70;;;23.30;99.90;;;;;;5061323;28;20021;-60
2023/09/10 06:22:29;;;;;;;13.18;7.57;;;23.20;99.90;;;;;;5069538;28;20044;-60
2023/09/10 06:24:55;;;;;;;15.00;8.15;;;23.20;99.90;;;;;;5061508;28;20478;-59
2023/09/10 06:27:21;;;;;;;14.60;7.53;;;23.20;99.90;;;;;;5063752;28;20045;-60
2023/09/10 06:29:46;;;;;;;15.63;8.40;;;23.20;99.90;;;;;;5054271;28;20027;-60
2023/09/10 06:32:12;;;;;;;13.90;7.80;;;23.20;99.90;;;;;;5068518;28;20036;-59
2023/09/10 06:34:38;;;;;;;14.73;8.45;;;23.00;99.90;;;;;;5065756;28;20021;-60
2023/09/10 06:37:05;;;;;;;14.68;8.32;;;22.80;99.90;;;;;;5072475;28;20029;-60
2023/09/10 06:39:38;;;;;;;15.40;8.55;;;22.90;99.90;;;;;;5072467;28;20816;-60
2023/09/10 06:42:07;;;;;;;14.30;8.43;;;22.70;99.90;;;;;;5072114;28;20107;-60
2023/09/10 06:44:33;;;;;;;12.95;8.05;;;22.50;99.90;;;;;;5072714;28;20029;-60
2023/09/10 06:46:59;;;;;;;12.40;8.32;;;22.50;99.90;;;;;;5072315;28;20027;-60
2023/09/10 06:49:26;;;;;;;12.02;8.25;;;22.40;99.90;;;;;;5072258;28;20024;-60
2023/09/10 06:51:52;;;;;;;21.15;9.25;;;22.40;99.90;;;;;;5081361;28;20036;-60
2023/09/10 06:54:17;;;;;;;13.60;8.57;;;22.40;99.90;;;;;;5092492;28;20027;-60
2023/09/10 06:56:43;;;;;;;13.75;8.50;;;22.30;99.90;;;;;;5074311;28;20044;-60
2023/09/10 06:59:08;;;;;;;13.57;8.60;;;22.30;99.90;;;;;;5065921;28;20052;-60
2023/09/10 07:01:37;;;;;;;15.98;8.73;;;22.30;99.90;;;;;;5066207;28;20029;-60
2023/09/10 07:04:19;;;;;;;13.02;8.30;;;22.20;99.90;;;;;;5066055;28;20468;-60
2023/09/10 07:06:47;;;;;;;11.40;8.23;;;22.20;99.90;;;;;;5074541;28;20103;-60
2023/09/10 07:09:13;;;;;;;10.02;7.78;;;22.30;99.90;;;;;;5086719;28;20107;-59
2023/09/10 07:11:39;;;;;;;13.88;7.75;;;22.30;99.90;;;;;;5091483;28;20107;-60
2023/09/10 07:14:04;;;;;;;11.27;7.55;;;22.30;99.90;;;;;;5091940;28;20059;-59
2023/09/10 07:16:30;;;;;;;12.98;7.50;;;22.50;99.90;;;;;;5091573;28;20043;-58
2023/09/10 07:18:56;;;;;;;13.70;7.55;;;22.70;99.90;;;;;;5091439;28;20099;-58
2023/09/10 07:21:21;;;;;;;11.77;7.70;;;22.80;99.90;;;;;;5076527;28;20039;-59
2023/09/10 07:23:47;;;;;;;12.65;7.45;;;22.80;99.90;;;;;;5070864;28;20028;-59
2023/09/10 07:26:12;;;;;;;14.40;7.88;;;22.70;99.90;;;;;;5071413;28;20028;-59
2023/09/10 07:28:38;;;;;;;14.40;6.78;;;22.70;99.90;;;;;;5071349;28;20045;-59
2023/09/10 07:31:04;;;;;;;13.90;6.10;;;22.70;99.90;;;;;;5071310;28;20091;-59
2023/09/10 07:33:29;;;;;;;16.38;6.25;;;23.10;99.90;;;;;;5070947;28;20051;-59
2023/09/10 07:35:55;;;;;;;14.73;5.80;;;23.10;99.90;;;;;;5071276;28;20441;-59
2023/09/10 07:38:21;;;;;;;16.38;5.93;;;23.20;99.90;;;;;;5071304;28;20063;-59
2023/09/10 07:40:46;;;;;;;16.77;6.25;;;23.40;99.90;;;;;;5071089;28;20025;-59
2023/09/10 07:43:12;;;;;;;17.75;6.15;;;23.40;99.90;;;;;;5071203;28;20026;-59
2023/09/10 07:45:39;;;;;;;21.02;5.95;;;23.50;99.90;;;;;;5070971;28;20052;-59
2023/09/10 07:48:05;;;;;;;15.77;5.78;;;23.60;99.90;;;;;;5070797;28;20031;-60
2023/09/10 07:50:31;;;;;;;16.48;5.95;;;23.70;99.90;;;;;;5071413;28;20032;-60
2023/09/10 07:52:57;;;;;;;13.55;5.47;;;23.70;99.90;;;;;;5070440;28;20033;-59
2023/09/10 07:55:23;;;;;;;11.68;5.60;;;23.50;99.90;;;;;;5070823;28;20035;-59
2023/09/10 07:57:49;;;;;;;10.40;5.78;;;23.40;99.90;;;;;;5070764;28;20448;-60
2023/09/10 08:00:16;;;;;;;12.27;6.40;;;23.30;99.90;;;;;;5085534;28;20024;-59
2023/09/10 08:02:42;;;;;;;10.07;6.60;;;23.20;99.90;;;;;;5091217;28;20024;-58
2023/09/10 08:05:08;;;;;;;12.80;7.43;;;23.00;99.90;;;;;;5090971;28;20024;-59
2023/09/10 08:07:35;;;;;;;11.00;7.50;;;22.90;99.90;;;;;;5085127;28;20103;-58
2023/09/10 08:10:01;;;;;;;11.60;8.05;;;22.80;99.90;;;;;;5090434;28;20017;-58
2023/09/10 08:12:27;;;;;;;11.35;6.90;;;22.60;99.90;;;;;;5090479;28;20089;-59
2023/09/10 08:14:53;;;;;;;15.48;7.38;;;22.80;99.90;;;;;;5087616;28;20477;-60
2023/09/10 08:17:19;;;;;;;9.27;6.90;;;22.90;99.90;;;;;;5089738;28;20504;-60
2023/09/10 08:19:45;;;;;;;10.38;6.95;;;23.00;99.90;;;;;;5087364;28;20039;-60
2023/09/10 08:22:11;;;;;;;8.95;6.38;;;23.10;99.90;;;;;;5089503;28;20448;-60
2023/09/10 08:24:36;;;;;;;9.43;6.40;;;23.20;99.90;;;;;;5064120;28;20024;-60
2023/09/10 08:27:03;;;;;;;9.88;6.25;;;23.40;99.90;;;;;;5090296;28;20071;-60
2023/09/10 08:29:29;;;;;;;9.23;5.80;;;23.50;99.90;;;;;;5090834;28;20020;-59
2023/09/10 08:31:55;;;;;;;8.07;6.22;;;23.50;99.90;;;;;;5090579;28;20044;-59
2023/09/10 08:34:21;;;;;;;8.98;6.38;;;23.50;99.90;;;;;;5090589;28;20451;-59
2023/09/10 08:36:47;;;;;;;9.95;6.20;;;23.80;99.90;;;;;;5093079;28;20030;-60
2023/09/10 08:39:12;;;;;;;11.07;6.05;;;24.00;99.90;;;;;;5094070;28;20020;-60
2023/09/10 08:41:50;;;;;;;10.23;6.68;;;24.10;99.90;;;;;;5094654;28;20107;-60
2023/09/10 08:44:19;;;;;;;7.22;5.70;;;24.20;99.90;;;;;;5091965;28;20030;-60
2023/09/10 08:46:49;;;;;;;10.27;5.80;;;24.30;99.90;;;;;;5092934;28;20066;-59
2023/09/10 08:49:15;;;;;;;8.75;5.43;;;24.50;99.90;;;;;;5094310;28;20027;-60
2023/09/10 08:51:41;;;;;;;10.30;5.20;;;24.60;99.90;;;;;;5068786;28;20036;-60
2023/09/10 08:54:09;;;;;;;6.78;5.20;;;24.70;99.90;;;;;;5093565;28;20031;-60
2023/09/10 08:56:35;;;;;;;8.77;5.45;;;24.80;99.90;;;;;;5094326;28;20035;-60
2023/09/10 08:59:03;;;;;;;9.93;5.60;;;25.00;99.90;;;;;;5093740;28;20032;-60
2023/09/10 09:01:29;;;;;;;8.27;5.00;;;25.00;99.90;;;;;;5089341;28;20055;-61
2023/09/10 09:03:55;;;;;;;8.05;5.38;;;24.90;99.90;;;;;;5093882;28;20067;-61
2023/09/10 09:06:21;;;;;;;9.25;5.75;;;24.90;99.90;;;;;;5093613;28;20028;-61
2023/09/10 09:08:51;;;;;;;8.65;5.57;;;25.00;99.90;;;;;;5094135;28;20382;-61
2023/09/10 09:11:18;;;;;;;8.13;5.63;;;25.10;99.90;;;;;;5094531;28;20528;-60
2023/09/10 09:13:47;;;;;;;7.13;5.15;;;25.20;99.90;;;;;;5093869;28;20028;-62
2023/09/10 09:16:14;;;;;;;6.50;4.97;;;25.40;99.90;;;;;;5093190;28;20028;-60
2023/09/10 09:18:41;;;;;;;8.05;5.38;;;25.40;99.90;;;;;;5093814;28;20103;-60
2023/09/10 09:21:23;;;;;;;8.38;5.15;;;25.30;99.90;;;;;;5091365;28;20094;-61
2023/09/10 09:23:59;;;;;;;9.20;4.97;;;25.30;99.90;;;;;;5053741;28;20025;-61
2023/09/10 09:26:27;;;;;;;10.00;5.13;;;25.40;99.90;;;;;;5053231;28;20029;-61
2023/09/10 09:28:56;;;;;;;9.07;4.90;;;25.40;99.90;;;;;;5053890;28;20049;-61
2023/09/10 09:31:22;;;;;;;8.05;4.68;;;25.50;99.90;;;;;;5053422;28;20120;-61
2023/09/10 09:33:48;;;;;;;7.70;4.80;;;25.70;99.90;;;;;;5053721;28;20017;-61
2023/09/10 09:36:13;;;;;;;9.23;5.05;;;25.70;99.90;;;;;;5053302;28;20036;-60
2023/09/10 09:38:47;;;;;;;8.57;4.72;;;25.80;99.90;;;;;;5053866;28;20013;-61
2023/09/10 09:41:17;;;;;;;7.15;4.80;;;25.80;99.90;;;;;;5053300;28;20572;-61
2023/09/10 09:43:43;;;;;;;7.97;4.60;;;25.80;99.90;;;;;;5053721;28;20036;-61
2023/09/10 09:46:10;;;;;;;7.18;4.10;;;25.80;99.90;;;;;;5053239;28;20037;-60
2023/09/10 09:48:36;;;;;;;7.75;4.22;;;25.90;99.90;;;;;;5053385;28;20104;-61
2023/09/10 09:51:03;;;;;;;6.93;4.55;;;26.00;99.90;;;;;;5055032;28;20037;-60
2023/09/10 09:53:31;;;;;;;9.15;4.47;;;26.00;99.90;;;;;;5073360;28;20396;-61
2023/09/10 09:55:59;;;;;;;7.00;3.88;;;26.10;99.90;;;;;;5073654;28;20024;-61
2023/09/10 09:58:25;;;;;;;8.07;4.43;;;26.10;99.90;;;;;;5073026;28;20032;-60
2023/09/10 10:00:51;;;;;;;6.50;3.95;;;26.30;99.90;;;;;;5073081;28;20025;-61
2023/09/10 10:03:20;;;;;;;5.93;4.10;;;26.20;99.90;;;;;;5072857;28;20406;-60
2023/09/10 10:05:50;;;;;;;6.25;4.00;;;26.10;99.90;;;;;;5072984;28;20027;-60
2023/09/10 10:08:17;;;;;;;5.95;3.80;;;26.00;99.90;;;;;;5073067;28;20501;-61
2023/09/10 10:10:51;;;;;;;7.78;4.55;;;26.10;99.90;;;;;;5072958;28;20115;-60
2023/09/10 10:13:23;;;;;;;7.38;4.25;;;26.10;99.90;;;;;;5072927;28;20029;-60
2023/09/10 10:15:52;;;;;;;6.38;3.85;;;26.10;99.90;;;;;;5073048;28;20044;-61
2023/09/10 10:18:20;;;;;;;4.30;3.50;;;26.00;99.90;;;;;;5072376;28;20059;-60
2023/09/10 10:20:49;;;;;;;6.22;3.92;;;26.00;99.90;;;;;;5072652;28;20024;-60
2023/09/10 10:23:18;;;;;;;5.82;3.78;;;26.00;99.90;;;;;;5073124;28;20024;-61
2023/09/10 10:25:46;;;;;;;5.32;3.42;;;26.00;99.90;;;;;;5072554;28;20017;-60
2023/09/10 10:28:12;;;;;;;6.93;3.65;;;26.10;99.90;;;;;;5072410;28;20052;-60
2023/09/10 10:31:04;;;;;;;6.07;3.55;;;26.10;99.90;;;;;;5072652;28;20109;-61
2023/09/10 10:33:31;;;;;;;5.68;3.65;;;26.10;99.90;;;;;;5071977;28;20516;-60
2023/09/10 10:36:15;;;;;;;5.28;3.40;;;26.10;99.90;;;;;;5072475;28;20036;-60
2023/09/10 10:38:44;;;;;;;5.63;3.58;;;26.10;99.90;;;;;;5055138;28;20025;-60
2023/09/10 10:41:16;;;;;;;6.88;3.28;;;26.10;99.90;;;;;;5072454;28;20417;-60
2023/09/10 10:43:50;;;;;;;6.88;3.30;;;26.20;99.90;;;;;;5072314;28;20040;-60
2023/09/10 10:46:18;;;;;;;5.05;3.28;;;26.20;99.90;;;;;;5072310;28;20407;-60
2023/09/10 10:48:44;;;;;;;5.95;3.30;;;26.20;99.90;;;;;;5072166;28;20027;-61
2023/09/10 10:51:14;;;;;;;5.32;3.25;;;26.30;99.90;;;;;;5071842;28;20414;-60
2023/09/10 10:53:40;;;;;;;4.97;3.22;;;26.50;99.90;;;;;;5072317;28;20405;-60
2023/09/10 10:56:06;;;;;;;5.97;3.42;;;26.70;99.90;;;;;;5054054;28;20040;-60
2023/09/10 10:58:39;;;;;;;5.13;3.75;;;26.90;99.90;;;;;;5071557;28;20017;-60
2023/09/10 11:01:05;;;;;;;5.63;3.33;;;27.10;99.90;;;;;;5072228;28;20485;-60
2023/09/10 11:03:32;;;;;;;4.65;2.83;;;27.30;99.90;;;;;;5071527;28;20497;-60
2023/09/10 11:06:04;;;;;;;4.53;2.97;;;27.30;99.90;;;;;;5071931;28;20024;-60
2023/09/10 11:08:42;;;;;;;5.22;3.05;;;27.40;99.90;;;;;;5071812;28;20100;-60
2023/09/10 11:11:30;;;;;;;4.47;3.28;;;27.30;99.90;;;;;;5072083;28;20028;-60
2023/09/10 11:14:02;;;;;;;4.72;2.97;;;27.30;99.90;;;;;;5072002;28;20051;-60
2023/09/10 11:16:32;;;;;;;3.47;3.15;;;27.50;99.90;;;;;;5071234;28;20404;-60
2023/09/10 11:18:59;;;;;;;5.57;3.40;;;27.50;99.90;;;;;;5071584;28;20406;-60
2023/09/10 11:21:53;;;;;;;6.00;3.08;;;27.50;99.90;;;;;;5071458;28;20123;-60
2023/09/10 11:24:19;;;;;;;6.07;3.47;;;27.70;99.90;;;;;;5071443;28;20444;-60
2023/09/10 11:26:44;;;;;;;6.85;3.63;;;27.80;99.90;;;;;;5071672;28;20021;-60
2023/09/10 11:29:19;;;;;;;5.03;3.00;;;28.00;99.90;;;;;;5071627;28;20199;-60
2023/09/10 11:31:48;;;;;;;4.90;2.80;;;27.90;99.90;;;;;;5071060;28;20064;-60
2023/09/10 11:34:17;;;;;;;6.75;3.10;;;28.00;99.90;;;;;;5071798;28;20036;-60
2023/09/10 11:36:50;;;;;;;5.18;2.90;;;28.10;99.90;;;;;;5071411;28;20027;-60
2023/09/10 11:39:17;;;;;;;5.97;2.88;;;28.10;99.90;;;;;;5071412;28;20028;-60
2023/09/10 11:41:48;;;;;;;5.07;3.30;;;28.20;99.90;;;;;;5071376;28;20039;-60
2023/09/10 11:44:14;;;;;;;6.10;3.58;;;28.20;99.90;;;;;;5071124;28;20024;-60
2023/09/10 11:46:40;;;;;;;5.07;3.60;;;28.20;99.90;;;;;;5070916;28;20024;-60
2023/09/10 11:49:06;;;;;;;6.55;3.80;;;28.20;99.90;;;;;;5071563;28;20024;-60
2023/09/10 11:51:32;;;;;;;8.43;4.70;;;28.30;99.90;;;;;;5070935;28;20040;-59
2023/09/10 11:53:59;;;;;;;11.90;4.90;;;28.20;99.90;;;;;;5071226;28;20027;-58
2023/09/10 11:56:25;;;;;;;8.35;4.97;;;28.20;99.90;;;;;;5071031;28;20115;-60
2023/09/10 11:58:50;;;;;;;10.40;5.78;;;28.00;99.90;;;;;;5071340;28;20020;-60
2023/09/10 12:01:16;;;;;;;9.23;5.28;;;27.90;99.90;;;;;;5070668;28;20036;-60
2023/09/10 12:03:44;;;;;;;7.53;5.07;;;27.70;99.90;;;;;;5071192;28;20025;-60
2023/09/10 12:06:11;;;;;;;7.35;4.82;;;27.70;99.90;;;;;;5071369;28;20053;-60
2023/09/10 12:08:37;;;;;;;7.88;4.90;;;27.70;99.90;;;;;;5071161;28;20035;-60
2023/09/10 12:11:06;;;;;;;10.18;5.10;;;27.60;99.90;;;;;;5069930;28;20128;-60
2023/09/10 12:13:35;;;;;;;10.55;5.10;;;27.70;99.90;;;;;;5070972;28;20028;-60
2023/09/10 12:16:01;;;;;;;9.70;5.20;;;27.70;99.90;;;;;;5070533;28;20067;-60
2023/09/10 12:18:27;;;;;;;9.50;5.20;;;27.80;99.90;;;;;;5071349;28;20032;-60
2023/09/10 12:20:53;;;;;;;8.35;5.03;;;27.70;99.90;;;;;;5070604;28;20024;-60
2023/09/10 12:23:19;;;;;;;9.05;5.35;;;27.80;99.90;;;;;;5070900;28;20031;-60
2023/09/10 12:25:54;;;;;;;9.57;5.28;;;27.80;99.90;;;;;;5070882;28;20092;-60
2023/09/10 12:28:19;;;;;;;8.73;5.25;;;27.70;99.90;;;;;;5070344;28;20055;-59
2023/09/10 12:30:46;;;;;;;8.13;4.72;;;27.70;99.90;;;;;;5052620;28;20029;-59
2023/09/10 12:33:12;;;;;;;5.93;4.13;;;27.60;99.90;;;;;;5070856;28;20032;-60
2023/09/10 12:35:38;;;;;;;5.50;4.03;;;27.60;99.90;;;;;;5071132;28;20389;-60
2023/09/10 12:38:04;;;;;;;5.95;3.80;;;27.80;99.90;;;;;;5070666;28;20096;-60
2023/09/10 12:40:30;;;;;;;6.35;3.88;;;27.80;99.90;;;;;;5070650;28;20481;-60
2023/09/10 12:42:56;;;;;;;8.23;3.90;;;28.00;99.90;;;;;;5070328;28;20032;-60